Time;durP1;ratioP1;P1;durP2;ratioP2;P2;SDS_P1;SDS_P2;PMS_P1;PMS_P2;Temp;Humidity;BMP_temperature;BMP_pressure;BME280_temperature;BME280_humidity;BME280_pressure;Samples;Min_cycle;Max_cycle;Signal;HPM_P1;HPM_P2
2022/01/24 00:00:14;;;;;;;6.55;4.88;;;5.30;99.90;;;;;;5122508;27;20074;-77
2022/01/24 00:02:42;;;;;;;5.50;4.60;;;5.30;99.90;;;;;;5132748;27;20478;-76
2022/01/24 00:05:08;;;;;;;5.60;4.78;;;5.30;99.90;;;;;;5124241;27;20050;-77
2022/01/24 00:07:35;;;;;;;6.55;4.63;;;5.30;99.90;;;;;;5114751;27;20534;-77
2022/01/24 00:10:05;;;;;;;6.55;4.97;;;5.30;99.90;;;;;;5140964;27;20051;-77
2022/01/24 00:12:38;;;;;;;9.32;5.30;;;5.30;99.90;;;;;;5143699;27;20100;-77
2022/01/24 00:15:14;;;;;;;4.93;4.43;;;5.30;99.90;;;;;;5131919;27;20075;-77
2022/01/24 00:17:47;;;;;;;5.78;4.93;;;5.30;99.90;;;;;;5117538;27;20047;-76
2022/01/24 00:28:26;;;;;;;7.07;4.65;;;5.30;99.90;;;;;;5113664;27;20051;-77
2022/01/24 00:30:53;;;;;;;6.40;5.22;;;5.20;99.90;;;;;;5144355;27;20046;-77
2022/01/24 00:33:19;;;;;;;5.00;4.50;;;5.30;99.90;;;;;;5131621;27;20227;-77
2022/01/24 00:35:46;;;;;;;5.65;4.50;;;5.20;99.90;;;;;;5134165;27;20066;-76
2022/01/24 00:38:12;;;;;;;7.50;4.85;;;5.20;99.90;;;;;;5141037;27;20051;-77
2022/01/24 00:40:41;;;;;;;5.75;4.78;;;5.30;99.90;;;;;;5125447;27;20050;-77
2022/01/24 00:43:17;;;;;;;7.47;5.00;;;5.20;99.90;;;;;;5112901;27;20539;-76
2022/01/24 00:45:55;;;;;;;10.05;4.47;;;5.20;99.90;;;;;;5134157;27;20055;-77
2022/01/24 00:48:38;;;;;;;5.75;4.45;;;5.20;99.90;;;;;;5150742;27;20114;-76
2022/01/24 00:54:03;;;;;;;7.90;5.07;;;5.20;99.90;;;;;;5145861;27;20050;-76
2022/01/24 00:56:29;;;;;;;7.35;4.55;;;5.20;99.90;;;;;;5139588;27;20508;-76
2022/01/24 00:58:56;;;;;;;7.50;4.35;;;5.20;99.90;;;;;;5146567;27;20134;-77
2022/01/24 01:01:22;;;;;;;10.18;5.38;;;5.10;99.90;;;;;;5150282;27;20042;-77
2022/01/24 01:03:49;;;;;;;5.20;4.70;;;5.20;99.90;;;;;;5117752;27;20058;-77
2022/01/24 01:06:16;;;;;;;9.25;5.10;;;5.10;99.90;;;;;;5139063;27;20058;-77
2022/01/24 01:19:41;;;;;;;9.05;5.65;;;5.10;99.90;;;;;;5105900;27;20042;-76
2022/01/24 01:22:07;;;;;;;5.45;4.88;;;5.10;99.90;;;;;;5146786;27;20042;-77
2022/01/24 01:24:39;;;;;;;7.90;6.30;;;5.10;99.90;;;;;;5143021;27;20391;-76
2022/01/24 01:27:10;;;;;;;5.40;4.88;;;5.10;99.90;;;;;;5120378;27;20051;-77
2022/01/24 01:29:47;;;;;;;10.63;5.22;;;5.00;99.90;;;;;;5123872;27;20058;-77
2022/01/24 01:32:20;;;;;;;7.20;5.57;;;5.00;99.90;;;;;;5148115;27;20529;-77
2022/01/24 01:35:06;;;;;;;7.15;6.20;;;5.00;99.90;;;;;;5131703;27;20054;-75
2022/01/24 01:57:04;;;;;;;15.30;9.02;;;5.00;99.90;;;;;;5124932;27;20126;-77
2022/01/24 01:59:30;;;;;;;13.30;9.15;;;4.90;99.90;;;;;;5141965;27;20049;-75
2022/01/24 02:01:57;;;;;;;12.00;8.40;;;4.90;99.90;;;;;;5150299;27;20046;-76
2022/01/24 02:04:23;;;;;;;12.98;8.38;;;5.00;99.90;;;;;;5144939;27;20069;-76
2022/01/24 02:06:50;;;;;;;11.35;8.65;;;4.90;99.90;;;;;;5136661;27;20512;-76
2022/01/24 02:09:17;;;;;;;12.50;8.70;;;4.90;99.90;;;;;;5145990;27;20489;-76
2022/01/24 02:11:43;;;;;;;14.57;10.02;;;4.90;99.90;;;;;;5130542;27;20051;-76
2022/01/24 02:14:14;;;;;;;15.13;9.52;;;4.90;99.90;;;;;;5121825;27;20046;-77
2022/01/24 02:16:47;;;;;;;14.02;10.43;;;4.90;99.90;;;;;;5136226;27;20055;-77
2022/01/24 02:19:25;;;;;;;14.95;10.52;;;4.90;99.90;;;;;;5150079;27;20074;-76
2022/01/24 02:22:07;;;;;;;17.42;10.13;;;4.90;99.90;;;;;;5141399;27;20046;-76
2022/01/24 02:24:40;;;;;;;16.42;10.65;;;4.90;99.90;;;;;;5125225;27;20051;-76
2022/01/24 02:27:07;;;;;;;18.65;11.50;;;4.90;99.90;;;;;;5130659;27;20554;-76
2022/01/24 02:29:47;;;;;;;16.92;10.65;;;4.90;99.90;;;;;;5143817;27;20390;-76
2022/01/24 02:32:14;;;;;;;18.42;10.55;;;4.90;99.90;;;;;;5118987;27;20061;-76
2022/01/24 02:34:41;;;;;;;14.43;11.20;;;4.90;99.90;;;;;;5118317;27;20054;-76
2022/01/24 02:37:07;;;;;;;15.98;11.50;;;4.90;99.90;;;;;;5141274;27;20042;-76
2022/01/24 02:39:46;;;;;;;20.98;12.57;;;4.90;99.90;;;;;;5149447;27;20497;-76
2022/01/24 02:50:34;;;;;;;17.75;12.70;;;4.80;99.90;;;;;;5139945;27;20085;-76
2022/01/24 02:53:01;;;;;;;23.27;11.80;;;4.90;99.90;;;;;;5116178;27;20051;-76
2022/01/24 02:55:27;;;;;;;18.20;12.07;;;4.90;99.90;;;;;;5141197;27;20054;-76
2022/01/24 02:57:54;;;;;;;16.48;12.02;;;4.90;99.90;;;;;;5142465;27;20074;-76
2022/01/24 03:00:20;;;;;;;24.08;14.02;;;4.90;99.90;;;;;;5147880;27;20043;-76
2022/01/24 03:02:47;;;;;;;19.27;13.85;;;4.90;99.90;;;;;;5123909;27;20047;-76
2022/01/24 03:05:13;;;;;;;17.58;13.32;;;4.90;99.90;;;;;;5130177;27;20113;-77
2022/01/24 03:07:40;;;;;;;19.08;13.35;;;4.90;99.90;;;;;;5134287;27;20047;-76
2022/01/24 03:10:13;;;;;;;18.15;13.98;;;4.90;99.90;;;;;;5135097;27;20047;-76
2022/01/24 03:12:42;;;;;;;19.88;13.07;;;4.80;99.90;;;;;;5133748;27;20054;-75
2022/01/24 03:15:09;;;;;;;19.73;13.35;;;4.80;99.90;;;;;;5138922;27;20087;-76
2022/01/24 03:17:35;;;;;;;19.55;13.05;;;4.80;99.90;;;;;;5145431;27;20506;-76
2022/01/24 03:20:02;;;;;;;16.55;11.95;;;4.80;99.90;;;;;;5141516;27;20493;-76
2022/01/24 03:22:28;;;;;;;22.02;12.90;;;4.80;99.90;;;;;;5126893;27;20043;-76
2022/01/24 03:24:55;;;;;;;19.80;11.85;;;4.80;99.90;;;;;;5132435;27;20042;-75
2022/01/24 03:27:22;;;;;;;22.88;14.10;;;4.80;99.90;;;;;;5152601;27;20046;-76
2022/01/24 03:29:48;;;;;;;18.08;11.65;;;4.80;99.90;;;;;;5149009;27;20050;-77
2022/01/24 03:32:15;;;;;;;18.00;12.30;;;4.80;99.90;;;;;;5133284;27;20051;-77
2022/01/24 03:34:41;;;;;;;18.83;12.50;;;4.80;99.90;;;;;;5145571;27;20050;-76
2022/01/24 03:37:08;;;;;;;17.00;11.93;;;4.80;99.90;;;;;;5115117;27;20047;-76
2022/01/24 03:39:34;;;;;;;16.65;11.82;;;4.80;99.90;;;;;;5134445;27;20051;-76
2022/01/24 03:42:01;;;;;;;14.75;11.25;;;4.80;99.90;;;;;;5124397;27;20049;-76
2022/01/24 03:44:28;;;;;;;17.45;12.75;;;4.80;99.90;;;;;;5133777;27;20066;-80
2022/01/24 03:47:13;;;;;;;17.10;13.05;;;4.80;99.90;;;;;;5148403;27;20054;-76
2022/01/24 03:49:46;;;;;;;14.02;10.27;;;4.70;99.90;;;;;;5138343;27;20054;-76
2022/01/24 03:52:12;;;;;;;14.65;10.25;;;4.80;99.90;;;;;;5114986;27;20051;-77
2022/01/24 03:54:39;;;;;;;13.23;9.75;;;4.80;99.90;;;;;;5118629;27;20051;-75
2022/01/24 03:57:05;;;;;;;13.90;9.90;;;4.80;99.90;;;;;;5132075;27;20096;-77
2022/01/24 03:59:32;;;;;;;13.32;9.73;;;4.80;99.90;;;;;;5132749;27;20572;-76
2022/01/24 04:01:58;;;;;;;13.35;9.75;;;4.80;99.90;;;;;;5132875;27;20054;-76
2022/01/24 04:04:25;;;;;;;12.52;9.40;;;4.80;99.90;;;;;;5134922;27;20054;-76
2022/01/24 04:06:51;;;;;;;15.20;10.25;;;4.80;99.90;;;;;;5146555;27;20055;-75
2022/01/24 04:09:18;;;;;;;17.25;9.45;;;4.80;99.90;;;;;;5120472;27;20059;-77
2022/01/24 04:11:44;;;;;;;14.02;9.48;;;4.80;99.90;;;;;;5142210;27;20046;-77
2022/01/24 04:14:26;;;;;;;17.05;10.35;;;4.80;99.90;;;;;;5120813;27;20055;-76
2022/01/24 04:17:04;;;;;;;17.95;11.13;;;4.70;99.90;;;;;;5122425;27;20454;-77
2022/01/24 04:21:18;;;;;;;14.32;10.32;;;4.70;99.90;;;;;;5117665;27;20487;-76
2022/01/24 04:22:18;;;;;;;17.50;11.45;;;4.70;99.90;;;;;;5128771;27;20129;-76
2022/01/24 04:24:45;;;;;;;17.67;12.15;;;4.70;99.90;;;;;;5131653;27;20134;-76
2022/01/24 04:27:13;;;;;;;15.90;10.40;;;4.70;99.90;;;;;;5122756;27;20043;-75
2022/01/24 04:29:39;;;;;;;18.45;11.13;;;4.70;99.90;;;;;;5119685;27;20099;-76
2022/01/24 04:32:06;;;;;;;15.32;11.50;;;4.70;99.90;;;;;;5134005;27;20047;-76
2022/01/24 04:34:32;;;;;;;18.05;11.23;;;4.70;99.90;;;;;;5133692;27;20039;-76
2022/01/24 04:36:59;;;;;;;12.07;9.10;;;4.70;99.90;;;;;;5121246;27;20047;-75
2022/01/24 04:39:25;;;;;;;15.55;10.02;;;4.70;99.90;;;;;;5120762;27;20047;-77
2022/01/24 04:41:55;;;;;;;15.68;10.35;;;4.70;99.90;;;;;;5134077;27;20051;-76
2022/01/24 04:44:44;;;;;;;18.25;10.65;;;4.70;99.90;;;;;;5120531;27;20047;-76
2022/01/24 04:47:19;;;;;;;12.63;9.98;;;4.70;99.90;;;;;;5138517;27;20455;-77
2022/01/24 04:52:37;;;;;;;14.68;9.90;;;4.70;99.90;;;;;;5113381;27;20047;-76
2022/01/24 04:55:04;;;;;;;15.45;10.85;;;4.70;99.90;;;;;;5115749;27;20035;-76
2022/01/24 04:57:30;;;;;;;16.73;11.02;;;4.70;99.90;;;;;;5131549;27;20051;-76
2022/01/24 04:59:57;;;;;;;14.88;10.30;;;4.70;99.90;;;;;;5113679;27;20050;-77
2022/01/24 05:02:23;;;;;;;15.77;10.55;;;4.70;99.90;;;;;;5115129;27;20116;-77
2022/01/24 05:04:50;;;;;;;13.15;10.10;;;4.70;99.90;;;;;;5131303;27;20556;-75
2022/01/24 05:07:16;;;;;;;14.30;10.35;;;4.70;99.90;;;;;;5128028;27;20050;-77
2022/01/24 05:09:48;;;;;;;15.70;10.43;;;4.70;99.90;;;;;;5144134;27;20043;-76
2022/01/24 05:12:22;;;;;;;17.25;11.68;;;4.70;99.90;;;;;;5139289;27;20047;-76
2022/01/24 05:25:45;;;;;;;18.02;11.65;;;4.70;99.90;;;;;;5145316;27;20095;-76
2022/01/24 05:28:12;;;;;;;20.58;12.80;;;4.60;99.90;;;;;;5127275;27;20046;-76
2022/01/24 05:30:38;;;;;;;15.38;12.18;;;4.70;99.90;;;;;;5125791;27;20261;-76
2022/01/24 05:33:05;;;;;;;22.90;14.63;;;4.70;99.90;;;;;;5121986;27;20042;-76
2022/01/24 05:35:31;;;;;;;19.83;12.38;;;4.60;99.90;;;;;;5116592;27;20074;-76
2022/01/24 05:37:58;;;;;;;18.95;13.38;;;4.60;99.90;;;;;;5113212;27;20051;-77
2022/01/24 05:40:24;;;;;;;19.08;13.73;;;4.60;99.90;;;;;;5132480;27;20393;-76
2022/01/24 05:42:51;;;;;;;18.55;12.80;;;4.60;99.90;;;;;;5137441;27;20055;-76
2022/01/24 05:45:18;;;;;;;20.25;13.18;;;4.60;99.90;;;;;;5138413;27;20256;-76
2022/01/24 05:47:44;;;;;;;20.77;13.13;;;4.60;99.90;;;;;;5145814;27;20042;-76
2022/01/24 05:50:11;;;;;;;19.13;11.95;;;4.60;99.90;;;;;;5138918;27;20046;-76
2022/01/24 05:52:37;;;;;;;18.42;12.30;;;4.60;99.90;;;;;;5119533;27;20046;-76
2022/01/24 05:55:04;;;;;;;20.30;12.93;;;4.60;99.90;;;;;;5137766;27;20050;-76
2022/01/24 05:57:30;;;;;;;18.38;13.18;;;4.60;99.90;;;;;;5124071;27;20050;-76
2022/01/24 05:59:57;;;;;;;20.13;12.82;;;4.60;99.90;;;;;;5143035;27;20054;-76
2022/01/24 06:02:23;;;;;;;16.08;12.13;;;4.60;99.90;;;;;;5131716;27;20051;-77
2022/01/24 06:04:50;;;;;;;18.77;12.90;;;4.60;99.90;;;;;;5130608;27;20051;-76
2022/01/24 06:07:16;;;;;;;24.30;15.35;;;4.60;99.90;;;;;;5130676;27;20051;-76
2022/01/24 06:09:43;;;;;;;26.27;14.55;;;4.60;99.90;;;;;;5111326;28;20133;-76
2022/01/24 06:12:10;;;;;;;20.85;13.50;;;4.60;99.90;;;;;;5143104;27;20051;-76
2022/01/24 06:14:36;;;;;;;19.95;12.75;;;4.60;99.90;;;;;;5140376;27;20117;-76
2022/01/24 06:17:03;;;;;;;22.10;14.18;;;4.60;99.90;;;;;;5115781;27;20883;-75
2022/01/24 06:19:29;;;;;;;18.13;12.88;;;4.60;99.90;;;;;;5133975;27;20047;-77
2022/01/24 06:21:56;;;;;;;20.67;14.25;;;4.60;99.90;;;;;;5133993;27;20047;-76
2022/01/24 06:24:22;;;;;;;22.52;14.25;;;4.60;99.90;;;;;;5142862;27;20055;-76
2022/01/24 06:26:49;;;;;;;22.20;12.93;;;4.60;99.90;;;;;;5129619;27;20058;-76
2022/01/24 06:29:15;;;;;;;22.27;13.63;;;4.60;99.90;;;;;;5139278;27;20073;-76
2022/01/24 06:31:42;;;;;;;22.20;14.05;;;4.60;99.90;;;;;;5135864;27;20410;-76
2022/01/24 06:34:08;;;;;;;24.13;15.20;;;4.60;99.90;;;;;;5119914;27;20043;-76
2022/01/24 06:36:35;;;;;;;23.70;14.43;;;4.50;99.90;;;;;;5124758;28;20054;-76
2022/01/24 06:39:03;;;;;;;23.08;13.85;;;4.50;99.90;;;;;;5129900;27;20038;-76
2022/01/24 06:41:33;;;;;;;22.30;14.85;;;4.50;99.90;;;;;;5118642;27;20436;-77
2022/01/24 06:43:59;;;;;;;20.35;14.30;;;4.50;99.90;;;;;;5129226;27;20058;-76
2022/01/24 06:46:26;;;;;;;22.80;15.77;;;4.50;99.90;;;;;;5125303;27;20053;-76
2022/01/24 06:48:52;;;;;;;21.15;13.93;;;4.50;99.90;;;;;;5138886;27;20054;-77
2022/01/24 06:51:19;;;;;;;25.13;14.95;;;4.50;99.90;;;;;;5123372;27;20051;-76
2022/01/24 06:53:46;;;;;;;22.73;15.00;;;4.50;99.90;;;;;;5138905;27;20124;-76
2022/01/24 06:56:13;;;;;;;18.58;14.10;;;4.50;99.90;;;;;;5124898;27;20083;-76
2022/01/24 06:58:39;;;;;;;21.98;14.98;;;4.50;99.90;;;;;;5148413;27;20053;-76
2022/01/24 07:01:06;;;;;;;27.23;17.38;;;4.50;99.90;;;;;;5133488;27;20042;-76
2022/01/24 07:03:32;;;;;;;21.50;15.15;;;4.50;99.90;;;;;;5150386;27;20038;-77
2022/01/24 07:05:59;;;;;;;19.45;14.18;;;4.50;99.90;;;;;;5132801;27;20046;-76
2022/01/24 07:08:25;;;;;;;24.77;15.63;;;4.50;99.90;;;;;;5133442;27;20059;-76
2022/01/24 07:10:52;;;;;;;25.10;15.80;;;4.50;99.90;;;;;;5151714;27;20051;-76
2022/01/24 07:13:19;;;;;;;22.90;15.18;;;4.50;99.90;;;;;;5150823;27;20062;-76
2022/01/24 07:15:49;;;;;;;28.27;15.23;;;4.50;99.90;;;;;;5149131;27;20054;-76
2022/01/24 07:18:57;;;;;;;28.10;15.57;;;4.50;99.90;;;;;;5132164;27;20078;-76
2022/01/24 07:21:04;;;;;;;22.90;14.85;;;4.50;99.90;;;;;;5131407;27;20053;-76
2022/01/24 07:23:30;;;;;;;24.60;16.15;;;4.50;99.90;;;;;;5131794;27;20051;-77
2022/01/24 07:25:57;;;;;;;23.23;14.90;;;4.50;99.90;;;;;;5143958;27;20509;-76
2022/01/24 07:28:23;;;;;;;26.95;15.52;;;4.50;99.90;;;;;;5132999;27;20656;-76
2022/01/24 07:30:50;;;;;;;21.88;13.55;;;4.50;99.90;;;;;;5130117;27;20046;-76
2022/01/24 07:33:17;;;;;;;22.30;13.75;;;4.50;99.90;;;;;;5151594;27;20047;-76
2022/01/24 07:35:43;;;;;;;21.17;14.23;;;4.50;99.90;;;;;;5131017;27;20043;-76
2022/01/24 07:38:10;;;;;;;20.80;14.10;;;4.50;99.90;;;;;;5130122;27;20049;-76
2022/01/24 07:40:39;;;;;;;29.55;14.52;;;4.50;99.90;;;;;;5147848;27;20034;-77
2022/01/24 07:43:11;;;;;;;22.00;14.90;;;4.50;99.90;;;;;;5129941;27;20051;-77
2022/01/24 07:45:37;;;;;;;29.45;14.55;;;4.50;99.90;;;;;;5149945;27;20042;-77
2022/01/24 07:48:04;;;;;;;25.67;13.55;;;4.50;99.90;;;;;;5131204;27;20050;-76
2022/01/24 07:50:30;;;;;;;22.08;13.15;;;4.50;99.90;;;;;;5126632;27;20055;-77
2022/01/24 07:52:59;;;;;;;21.67;13.73;;;4.50;99.90;;;;;;5130755;27;20054;-76
2022/01/24 07:55:25;;;;;;;22.10;14.13;;;4.50;99.90;;;;;;5129914;27;20051;-77
2022/01/24 07:57:52;;;;;;;22.38;12.88;;;4.50;99.90;;;;;;5129577;27;20045;-76
2022/01/24 08:00:18;;;;;;;22.73;12.05;;;4.50;99.90;;;;;;5126770;27;20044;-77
2022/01/24 08:02:45;;;;;;;19.50;13.30;;;4.50;99.90;;;;;;5128389;27;20058;-76
2022/01/24 08:05:12;;;;;;;25.30;11.30;;;4.50;99.90;;;;;;5124522;27;20043;-76
2022/01/24 08:07:38;;;;;;;13.95;11.63;;;4.60;99.90;;;;;;5128394;27;20050;-76
2022/01/24 08:10:05;;;;;;;18.27;12.60;;;4.60;99.90;;;;;;5127603;27;20566;-77
2022/01/24 08:12:32;;;;;;;32.78;13.13;;;4.60;99.90;;;;;;5130640;27;20481;-77
2022/01/24 08:14:59;;;;;;;30.98;14.40;;;4.60;99.90;;;;;;5125916;27;20040;-76
2022/01/24 08:17:26;;;;;;;17.48;12.55;;;4.60;99.90;;;;;;5127341;27;20050;-77
2022/01/24 08:19:53;;;;;;;12.55;10.65;;;4.60;99.90;;;;;;5128154;27;20177;-77
2022/01/24 08:22:19;;;;;;;19.30;11.55;;;4.60;99.90;;;;;;5126604;27;20475;-77
2022/01/24 08:24:46;;;;;;;17.45;12.15;;;4.60;99.90;;;;;;5125639;27;20078;-76
2022/01/24 08:27:12;;;;;;;17.13;12.07;;;4.70;99.90;;;;;;5129298;27;20051;-77
2022/01/24 08:29:39;;;;;;;19.10;11.45;;;4.70;99.90;;;;;;5122778;27;20062;-77
2022/01/24 08:32:05;;;;;;;12.38;10.57;;;4.60;99.90;;;;;;5130782;27;20459;-76
2022/01/24 08:34:32;;;;;;;14.10;10.75;;;4.60;99.90;;;;;;5126739;27;20043;-77
2022/01/24 08:36:58;;;;;;;16.85;11.48;;;4.60;99.90;;;;;;5125706;27;20047;-77
2022/01/24 08:39:25;;;;;;;16.45;10.55;;;4.70;99.90;;;;;;5125071;27;20051;-77
2022/01/24 08:42:02;;;;;;;13.85;10.63;;;4.70;99.90;;;;;;5121573;27;20055;-77
2022/01/24 08:45:43;;;;;;;15.73;11.82;;;4.70;99.90;;;;;;5126621;27;20058;-77
2022/01/24 08:47:21;;;;;;;15.20;10.50;;;4.70;99.90;;;;;;5126009;27;20549;-77
2022/01/24 08:49:48;;;;;;;18.70;10.68;;;4.70;99.90;;;;;;5140838;27;20512;-77
2022/01/24 08:52:14;;;;;;;18.45;10.50;;;4.70;99.90;;;;;;5130987;27;20054;-77
2022/01/24 08:54:41;;;;;;;18.60;11.50;;;4.70;99.90;;;;;;5130424;27;20051;-77
2022/01/24 08:57:07;;;;;;;17.55;11.10;;;4.70;99.90;;;;;;5148029;27;20046;-77
2022/01/24 08:59:34;;;;;;;18.08;11.48;;;4.70;99.90;;;;;;5130276;27;20050;-77
2022/01/24 09:02:00;;;;;;;15.25;11.35;;;4.70;99.90;;;;;;5129235;27;20412;-76
2022/01/24 09:04:27;;;;;;;27.50;12.27;;;4.80;99.90;;;;;;5145794;27;20047;-77
2022/01/24 09:06:54;;;;;;;17.02;11.35;;;4.80;99.90;;;;;;5127011;27;20039;-76
2022/01/24 09:09:20;;;;;;;19.02;12.05;;;4.80;99.90;;;;;;5127501;27;20091;-76
2022/01/24 09:11:47;;;;;;;16.60;11.32;;;4.80;99.90;;;;;;5120010;27;20055;-77
2022/01/24 09:14:13;;;;;;;17.95;10.93;;;4.80;99.90;;;;;;5110162;27;20051;-77
2022/01/24 09:16:40;;;;;;;21.55;10.98;;;4.80;99.90;;;;;;5109715;27;20066;-77
2022/01/24 09:19:06;;;;;;;20.17;12.73;;;4.80;99.90;;;;;;5120349;27;20043;-77
2022/01/24 09:21:34;;;;;;;21.52;12.65;;;4.80;99.90;;;;;;5117709;27;20043;-77
2022/01/24 09:24:00;;;;;;;16.50;10.77;;;4.80;99.90;;;;;;5121987;27;20451;-77
2022/01/24 09:26:27;;;;;;;20.63;14.35;;;4.80;99.90;;;;;;5119435;27;20061;-76
2022/01/24 09:28:53;;;;;;;21.42;13.68;;;4.80;99.90;;;;;;5109606;27;20054;-77
2022/01/24 09:31:21;;;;;;;24.42;14.93;;;4.80;99.90;;;;;;5125612;27;20051;-77
2022/01/24 09:33:47;;;;;;;23.17;14.25;;;4.80;99.90;;;;;;5126534;27;20054;-77
2022/01/24 09:36:14;;;;;;;23.55;15.13;;;4.80;99.90;;;;;;5109040;27;20141;-76
2022/01/24 09:38:40;;;;;;;20.25;13.52;;;4.90;99.90;;;;;;5137279;27;20074;-77
2022/01/24 09:41:07;;;;;;;31.27;19.77;;;4.90;99.90;;;;;;5123905;27;20498;-77
2022/01/24 09:43:33;;;;;;;32.83;18.73;;;4.90;99.90;;;;;;5122541;27;20061;-77
2022/01/24 09:46:00;;;;;;;33.42;20.00;;;4.90;99.90;;;;;;5131847;27;20051;-77
2022/01/24 09:48:26;;;;;;;29.55;19.35;;;4.90;99.90;;;;;;5139756;27;20046;-77
2022/01/24 09:50:53;;;;;;;35.50;23.73;;;4.90;99.90;;;;;;5135040;27;20042;-77
2022/01/24 09:53:20;;;;;;;48.00;25.30;;;5.00;99.90;;;;;;5109291;28;20090;-77
2022/01/24 09:55:46;;;;;;;41.90;25.65;;;5.00;99.90;;;;;;5142731;27;20051;-77
2022/01/24 09:58:13;;;;;;;45.03;26.55;;;5.00;99.90;;;;;;5125678;27;20058;-77
2022/01/24 10:00:39;;;;;;;49.75;26.83;;;4.90;99.90;;;;;;5136507;27;20076;-77
2022/01/24 10:03:06;;;;;;;43.03;24.67;;;5.00;99.90;;;;;;5128578;27;20070;-77
2022/01/24 10:05:33;;;;;;;46.53;27.33;;;4.90;99.90;;;;;;5124808;27;20050;-77
2022/01/24 10:08:00;;;;;;;52.45;29.95;;;4.90;99.90;;;;;;5124736;28;20575;-77
2022/01/24 10:10:26;;;;;;;53.40;30.92;;;5.00;99.90;;;;;;5127599;27;20490;-77
2022/01/24 10:18:21;;;;;;;61.60;33.78;;;5.00;99.90;;;;;;5129412;27;20063;-76
2022/01/24 10:20:48;;;;;;;50.72;33.58;;;5.00;99.90;;;;;;5111615;27;20055;-78
2022/01/24 10:23:15;;;;;;;59.45;34.13;;;5.00;99.90;;;;;;5138412;27;20061;-77
2022/01/24 10:25:42;;;;;;;59.38;33.47;;;5.00;99.90;;;;;;5137586;27;20047;-78
2022/01/24 10:28:08;;;;;;;60.22;34.60;;;5.10;99.90;;;;;;5142054;27;20049;-77
2022/01/24 10:30:35;;;;;;;60.45;35.58;;;5.00;99.90;;;;;;5127567;27;20059;-77
2022/01/24 10:33:04;;;;;;;57.33;34.72;;;5.10;99.90;;;;;;5112130;27;20054;-77
2022/01/24 10:35:31;;;;;;;60.60;34.42;;;5.10;99.90;;;;;;5148242;27;20054;-77
2022/01/24 10:37:57;;;;;;;63.13;36.85;;;5.10;99.90;;;;;;5116710;27;20078;-77
2022/01/24 10:40:24;;;;;;;68.32;36.47;;;5.10;99.90;;;;;;5133627;27;20050;-77
2022/01/24 10:42:55;;;;;;;60.22;35.67;;;5.20;99.90;;;;;;5148554;27;20063;-77
2022/01/24 10:45:22;;;;;;;73.22;39.42;;;5.10;99.90;;;;;;5144753;27;20077;-77
2022/01/24 10:47:50;;;;;;;67.55;37.47;;;5.20;99.90;;;;;;5148536;27;20055;-77
2022/01/24 10:50:17;;;;;;;72.20;41.95;;;5.20;99.90;;;;;;5121120;27;20051;-77
2022/01/24 10:52:43;;;;;;;74.93;43.20;;;5.20;99.90;;;;;;5120777;27;20047;-78
2022/01/24 10:55:10;;;;;;;73.07;41.38;;;5.20;99.90;;;;;;5129818;27;20206;-78
2022/01/24 10:57:36;;;;;;;76.35;42.17;;;5.20;99.90;;;;;;5130914;27;20047;-77
2022/01/24 11:00:03;;;;;;;76.53;45.25;;;5.20;99.90;;;;;;5131888;27;20050;-77
2022/01/24 11:02:29;;;;;;;77.88;45.28;;;5.20;99.90;;;;;;5119356;27;20058;-77
2022/01/24 11:04:56;;;;;;;84.13;42.20;;;5.20;99.90;;;;;;5137077;27;20054;-76
2022/01/24 11:07:22;;;;;;;74.05;40.17;;;5.20;99.90;;;;;;5125673;27;20402;-77
2022/01/24 11:09:49;;;;;;;75.85;41.03;;;5.20;99.90;;;;;;5145370;27;20039;-77
2022/01/24 11:12:18;;;;;;;67.90;39.10;;;5.20;99.90;;;;;;5145139;27;20054;-77
2022/01/24 11:14:44;;;;;;;74.72;42.45;;;5.30;99.90;;;;;;5114425;27;20111;-77
2022/01/24 11:17:12;;;;;;;78.68;45.20;;;5.20;99.90;;;;;;5118860;27;20061;-77
2022/01/24 11:19:42;;;;;;;71.50;41.08;;;5.30;99.90;;;;;;5140235;27;20053;-77
2022/01/24 11:22:18;;;;;;;90.60;47.10;;;5.30;99.90;;;;;;5143624;27;20042;-77
2022/01/24 11:24:51;;;;;;;82.40;46.60;;;5.30;99.90;;;;;;5124355;27;20059;-78
2022/01/24 11:27:17;;;;;;;86.93;47.28;;;5.30;99.90;;;;;;5130645;27;20055;-76
2022/01/24 11:29:44;;;;;;;80.70;47.92;;;5.30;99.90;;;;;;5143566;27;20051;-76
2022/01/24 11:32:10;;;;;;;84.40;47.25;;;5.30;99.90;;;;;;5128837;27;20054;-76
2022/01/24 11:34:37;;;;;;;92.43;50.35;;;5.30;99.90;;;;;;5128915;27;20078;-77
2022/01/24 11:37:03;;;;;;;95.65;48.50;;;5.40;99.90;;;;;;5148047;27;20054;-77
2022/01/24 11:39:30;;;;;;;90.60;47.50;;;5.30;99.90;;;;;;5123305;27;20063;-76
2022/01/24 11:41:56;;;;;;;74.78;45.40;;;5.30;99.90;;;;;;5110609;27;20055;-77
2022/01/24 11:44:23;;;;;;;87.50;46.03;;;5.30;99.90;;;;;;5121763;27;20061;-77
2022/01/24 11:46:52;;;;;;;82.20;43.47;;;5.30;99.90;;;;;;5127632;27;20136;-77
2022/01/24 11:49:18;;;;;;;89.95;46.03;;;5.40;99.90;;;;;;5130382;27;20129;-76
2022/01/24 11:51:45;;;;;;;84.38;46.20;;;5.40;99.90;;;;;;5146528;27;20055;-77
2022/01/24 11:54:11;;;;;;;79.38;45.95;;;5.30;99.90;;;;;;5130220;27;20061;-77
2022/01/24 11:56:38;;;;;;;81.72;44.58;;;5.40;99.90;;;;;;5147612;27;20058;-77
2022/01/24 11:59:04;;;;;;;77.95;43.28;;;5.40;99.90;;;;;;5127850;27;20061;-77
2022/01/24 12:01:31;;;;;;;82.55;44.42;;;5.40;99.90;;;;;;5118085;27;20051;-77
2022/01/24 12:03:58;;;;;;;91.82;47.90;;;5.40;99.90;;;;;;5128069;27;20046;-77
2022/01/24 12:06:24;;;;;;;81.20;43.92;;;5.40;99.90;;;;;;5149734;27;20061;-77
2022/01/24 12:08:51;;;;;;;88.60;47.42;;;5.30;99.90;;;;;;5125873;27;20070;-77
2022/01/24 12:11:19;;;;;;;89.88;47.67;;;5.40;99.90;;;;;;5122069;27;20066;-76
2022/01/24 12:13:46;;;;;;;74.95;42.72;;;5.40;99.90;;;;;;5118326;27;20058;-77
2022/01/24 12:16:12;;;;;;;65.20;36.53;;;5.40;99.90;;;;;;5138968;27;20112;-77
2022/01/24 12:18:39;;;;;;;67.93;36.55;;;5.40;99.90;;;;;;5136636;27;20061;-76
2022/01/24 12:21:06;;;;;;;61.58;33.17;;;5.40;99.90;;;;;;5138462;27;20062;-76
2022/01/24 12:23:32;;;;;;;56.45;34.05;;;5.40;99.90;;;;;;5135167;27;20065;-76
2022/01/24 12:26:00;;;;;;;70.70;37.95;;;5.40;99.90;;;;;;5109891;27;20096;-76
2022/01/24 12:28:26;;;;;;;77.40;41.30;;;5.40;99.90;;;;;;5145893;27;20046;-76
2022/01/24 12:30:53;;;;;;;54.78;32.80;;;5.30;99.90;;;;;;5142924;27;20046;-77
2022/01/24 12:33:19;;;;;;;50.10;29.35;;;5.30;99.90;;;;;;5128443;27;20046;-77
2022/01/24 12:35:46;;;;;;;54.03;29.73;;;5.30;99.90;;;;;;5128662;27;20120;-76
2022/01/24 12:38:13;;;;;;;48.35;31.58;;;5.30;99.90;;;;;;5135067;27;20043;-77
2022/01/24 12:40:40;;;;;;;53.67;31.10;;;5.40;99.90;;;;;;5146992;27;20524;-77
2022/01/24 12:43:06;;;;;;;54.15;30.20;;;5.30;99.90;;;;;;5129993;27;20043;-77
2022/01/24 12:48:17;;;;;;;48.35;28.85;;;5.30;99.90;;;;;;5140838;27;20050;-78
2022/01/24 12:50:44;;;;;;;52.95;28.85;;;5.30;99.90;;;;;;5137666;27;20057;-77
2022/01/24 12:53:13;;;;;;;56.67;30.05;;;5.30;99.90;;;;;;5143814;27;20047;-78
2022/01/24 12:55:39;;;;;;;55.85;31.35;;;5.30;99.90;;;;;;5128661;27;20047;-78
2022/01/24 12:58:06;;;;;;;48.80;30.25;;;5.30;99.90;;;;;;5109251;27;20055;-78
2022/01/24 13:00:33;;;;;;;56.33;32.47;;;5.30;99.90;;;;;;5118026;27;20062;-78
2022/01/24 13:03:00;;;;;;;55.10;30.13;;;5.30;99.90;;;;;;5146350;27;20047;-78
2022/01/24 13:05:28;;;;;;;56.40;31.48;;;5.30;99.90;;;;;;5143209;27;20051;-78
2022/01/24 13:07:54;;;;;;;47.78;30.85;;;5.30;99.90;;;;;;5120775;27;20055;-78
2022/01/24 13:10:21;;;;;;;59.53;32.08;;;5.30;99.90;;;;;;5123234;27;20054;-77
2022/01/24 13:12:47;;;;;;;61.20;33.00;;;5.30;99.90;;;;;;5145360;27;20054;-78
2022/01/24 13:15:25;;;;;;;58.60;31.92;;;5.30;99.90;;;;;;5146182;27;20043;-78
2022/01/24 13:23:35;;;;;;;59.40;33.70;;;5.20;99.90;;;;;;5082219;28;20059;-78
2022/01/24 13:26:02;;;;;;;63.33;33.33;;;5.30;99.90;;;;;;5064888;28;20558;-78
2022/01/24 13:28:28;;;;;;;57.38;32.63;;;5.30;99.90;;;;;;5090418;27;20053;-78
2022/01/24 13:30:59;;;;;;;56.50;35.17;;;5.30;99.90;;;;;;5127128;27;20046;-78
2022/01/24 13:33:26;;;;;;;;;;;5.30;99.90;;;;;;5124027;27;20065;-75
2022/01/24 13:35:52;;;;;;;55.70;33.08;;;5.30;99.90;;;;;;5145099;27;20374;-76
2022/01/24 13:38:19;;;;;;;50.40;29.83;;;5.30;99.90;;;;;;5121941;27;20478;-76
2022/01/24 13:40:52;;;;;;;57.35;32.75;;;5.20;99.90;;;;;;5127350;27;20051;-76
2022/01/24 13:43:19;;;;;;;58.88;33.47;;;5.20;99.90;;;;;;5111485;27;20043;-76
2022/01/24 13:45:45;;;;;;;61.35;36.30;;;5.30;99.90;;;;;;5133568;27;20055;-76
2022/01/24 13:48:12;;;;;;;59.28;32.33;;;5.20;99.90;;;;;;5144993;27;20046;-75
2022/01/24 13:50:39;;;;;;;63.97;35.35;;;5.20;99.90;;;;;;5137616;27;20055;-76
2022/01/24 13:53:05;;;;;;;60.22;36.53;;;5.20;99.90;;;;;;5109152;27;20062;-77
2022/01/24 13:55:32;;;;;;;56.63;34.40;;;5.20;99.90;;;;;;5120814;27;20042;-76
2022/01/24 13:57:58;;;;;;;50.67;30.08;;;5.20;99.90;;;;;;5134952;27;20047;-77
2022/01/24 14:00:25;;;;;;;53.88;30.38;;;5.20;99.90;;;;;;5135754;27;20058;-77